createdAt,value
2022-10-08T00:00:00.676Z,100937.66
2022-10-08T00:02:29.677Z,100943.81
2022-10-08T00:04:57.881Z,100940.22
2022-10-08T00:07:26.212Z,100942.09
2022-10-08T00:09:55.850Z,100945.50
2022-10-08T00:12:24.153Z,100940.22
2022-10-08T00:14:53.783Z,100932.25
2022-10-08T00:17:22.024Z,100938.41
2022-10-08T00:19:50.199Z,100944.53
2022-10-08T00:22:18.780Z,100944.53
2022-10-08T00:24:46.979Z,100939.25
2022-10-08T00:27:17.028Z,100941.13
2022-10-08T00:29:45.624Z,100942.94
2022-10-08T00:32:13.828Z,100947.31
2022-10-08T00:34:43.131Z,100950.88
2022-10-08T00:37:11.643Z,100955.22
2022-10-08T00:39:40.211Z,100950.81
2022-10-08T00:42:11.130Z,100942.94
2022-10-08T00:44:54.667Z,100951.81
2022-10-08T00:47:46.446Z,100952.66
2022-10-08T00:50:20.156Z,100950.06
2022-10-08T00:52:51.828Z,100946.53
2022-10-08T00:55:23.654Z,100935.03
2022-10-08T00:57:53.135Z,100934.22
2022-10-08T01:00:26.497Z,100943.06
2022-10-08T01:02:55.859Z,100940.53
2022-10-08T01:05:31.895Z,100946.72
2022-10-08T01:08:10.255Z,100939.72
2022-10-08T01:10:49.456Z,100937.09
2022-10-08T01:13:31.205Z,100930.88
2022-10-08T01:16:12.682Z,100938.91
2022-10-08T01:18:51.113Z,100927.56
2022-10-08T01:21:30.169Z,100925.91
2022-10-08T01:24:52.424Z,100926.06
2022-10-08T01:27:31.170Z,100924.34
2022-10-08T01:30:05.677Z,100931.34
2022-10-08T01:32:41.257Z,100927.94
2022-10-08T01:35:16.204Z,100929.63
2022-10-08T01:37:45.143Z,100937.72
2022-10-08T01:40:20.312Z,100945.84
2022-10-08T01:42:54.031Z,100938.03
2022-10-08T01:45:28.118Z,100942.50
2022-10-08T01:47:59.844Z,100942.50
2022-10-08T01:50:34.464Z,100941.63
2022-10-08T01:53:09.609Z,100952.16
2022-10-08T01:55:42.085Z,100938.06
2022-10-08T01:58:18.124Z,100951.22
2022-10-08T02:00:49.673Z,100947.66
2022-10-08T02:03:17.952Z,100953.75
2022-10-08T02:05:51.271Z,100945.84
2022-10-08T02:08:19.632Z,100945.84
2022-10-08T02:10:47.805Z,100944.91
2022-10-08T02:13:17.528Z,100943.13
2022-10-08T02:15:53.566Z,100940.56
2022-10-08T02:18:31.955Z,100933.69
2022-10-08T02:21:02.451Z,100935.50
2022-10-08T02:23:38.757Z,100945.25
2022-10-08T02:26:11.328Z,100954.91
2022-10-08T02:28:49.717Z,100946.19
2022-10-08T02:31:27.273Z,100952.31
2022-10-08T02:34:02.616Z,100945.38
2022-10-08T02:36:36.009Z,100949.84
2022-10-08T02:39:07.733Z,100953.41
2022-10-08T02:41:41.840Z,100955.22
2022-10-08T02:44:18.042Z,100957.09
2022-10-08T02:46:51.425Z,100952.69
2022-10-08T02:49:24.194Z,100956.25
2022-10-08T02:51:55.581Z,100946.56
2022-10-08T02:54:25.271Z,100950.06
2022-10-08T02:57:00.204Z,100945.66
2022-10-08T02:59:29.824Z,100951.81
2022-10-08T03:02:02.542Z,100953.50
2022-10-08T03:04:37.260Z,100954.38
2022-10-08T03:07:06.380Z,100954.44
2022-10-08T03:09:40.648Z,100963.31
2022-10-08T03:12:09.264Z,100966.91
2022-10-08T03:14:43.225Z,100967.75
2022-10-08T03:17:15.874Z,100971.28
2022-10-08T03:19:44.731Z,100963.38
2022-10-08T03:22:13.097Z,100973.03
2022-10-08T03:24:41.633Z,100973.03
2022-10-08T03:27:10.168Z,100976.47
2022-10-08T03:29:40.009Z,100974.75
2022-10-08T03:32:08.178Z,100981.81
2022-10-08T03:34:36.525Z,100987.13
2022-10-08T03:37:05.069Z,100980.13
2022-10-08T03:39:33.228Z,100978.44
2022-10-08T03:42:01.420Z,100983.72
2022-10-08T03:44:29.589Z,100980.25
2022-10-08T03:47:00.236Z,100984.72
2022-10-08T03:49:28.948Z,100991.78
2022-10-08T03:51:57.544Z,100986.56
2022-10-08T03:54:26.089Z,100992.88
2022-10-08T03:56:54.616Z,101003.59
2022-10-08T03:59:22.932Z,100995.00
2022-10-08T04:01:51.467Z,100990.78
2022-10-08T04:04:25.406Z,100991.00
2022-10-08T04:06:54.305Z,100997.34
2022-10-08T04:09:22.899Z,101001.09
2022-10-08T04:11:51.176Z,101003.03
2022-10-08T04:14:19.363Z,101004.09
2022-10-08T04:16:48.162Z,101006.88
2022-10-08T04:19:17.535Z,101007.06
2022-10-08T04:21:47.392Z,101004.63
2022-10-08T04:24:15.615Z,101011.91
2022-10-08T04:26:43.831Z,101000.78
2022-10-08T04:29:12.979Z,101003.66
2022-10-08T04:31:41.613Z,101013.56
2022-10-08T04:34:11.520Z,101015.59
2022-10-08T04:36:40.501Z,101010.59
2022-10-08T04:39:10.217Z,101015.22
2022-10-08T04:41:38.386Z,101012.78
2022-10-08T04:44:06.676Z,101021.78
2022-10-08T04:46:34.980Z,101013.22
2022-10-08T04:49:03.536Z,101026.63
2022-10-08T04:51:31.736Z,101020.66
2022-10-08T04:54:00.003Z,101022.56
2022-10-08T04:56:32.711Z,101026.16
2022-10-08T04:59:01.352Z,101022.81
2022-10-08T05:01:31.422Z,101029.97
2022-10-08T05:04:00.919Z,101033.56
2022-10-08T05:06:32.116Z,101036.28
2022-10-08T05:09:04.069Z,101039.00
2022-10-08T05:11:34.336Z,101040.91
2022-10-08T05:14:02.978Z,101043.66
2022-10-08T05:16:31.557Z,101048.13
2022-10-08T05:19:00.403Z,101046.50
2022-10-08T05:21:31.444Z,101049.22
2022-10-08T05:24:02.146Z,101057.19
2022-10-08T05:26:57.506Z,101051.09
2022-10-08T05:29:23.407Z,101058.28
2022-10-08T05:31:51.883Z,101060.97
2022-10-08T05:34:20.160Z,101057.53
2022-10-08T05:36:48.708Z,101057.63
2022-10-08T05:39:17.175Z,101059.44
2022-10-08T05:41:46.728Z,101063.00
2022-10-08T05:44:15.824Z,101058.66
2022-10-08T05:46:44.127Z,101067.47
2022-10-08T05:49:21.724Z,101060.53
2022-10-08T05:51:51.029Z,101072.81
2022-10-08T05:54:20.151Z,101070.19
2022-10-08T05:56:49.995Z,101072.75
2022-10-08T05:59:20.944Z,101078.00
2022-10-08T06:01:49.892Z,101080.63
2022-10-08T06:04:19.411Z,101075.28
2022-10-08T06:06:48.321Z,101083.97
2022-10-08T06:09:19.577Z,101076.06
2022-10-08T06:11:50.545Z,101085.66
2022-10-08T06:14:20.199Z,101094.34
2022-10-08T06:16:48.973Z,101097.75
2022-10-08T06:19:17.636Z,101101.22
2022-10-08T06:21:46.207Z,101102.84
2022-10-08T06:24:14.912Z,101104.53
2022-10-08T06:26:44.792Z,101107.97
2022-10-08T06:29:19.530Z,101111.44
2022-10-08T06:31:48.117Z,101114.00
2022-10-08T06:34:17.001Z,101113.00
2022-10-08T06:36:45.304Z,101119.94
2022-10-08T06:39:18.731Z,101111.06
2022-10-08T06:41:47.142Z,101116.25
2022-10-08T06:44:19.002Z,101117.00
2022-10-08T06:46:47.331Z,101116.00
2022-10-08T06:49:15.590Z,101121.94
2022-10-08T06:51:43.805Z,101117.25
2022-10-08T06:54:12.020Z,101111.59
2022-10-08T06:56:40.334Z,101116.41
2022-10-08T06:59:09.127Z,101117.56
2022-10-08T07:01:39.424Z,101115.03
2022-10-08T07:04:08.083Z,101114.38
2022-10-08T07:06:36.753Z,101119.41
2022-10-08T07:09:07.069Z,101114.03
2022-10-08T07:11:35.796Z,101126.13
2022-10-08T07:14:04.142Z,101131.09
2022-10-08T07:16:32.535Z,101124.25
2022-10-08T07:19:02.106Z,101132.94
2022-10-08T07:21:31.424Z,101131.97
2022-10-08T07:24:01.860Z,101145.03
2022-10-08T07:26:34.136Z,101139.19
2022-10-08T07:29:05.304Z,101150.94
2022-10-08T07:31:36.814Z,101149.94
2022-10-08T07:34:10.934Z,101149.16
2022-10-08T07:36:39.852Z,101154.00
2022-10-08T07:39:12.367Z,101159.28
2022-10-08T07:41:40.864Z,101158.66
2022-10-08T07:44:09.263Z,101151.63
2022-10-08T07:46:42.978Z,101157.91
2022-10-08T07:49:13.133Z,101157.84
2022-10-08T07:51:42.512Z,101165.44
2022-10-08T07:54:14.375Z,101166.31
2022-10-08T07:56:42.984Z,101163.13
2022-10-08T07:59:14.933Z,101166.03
2022-10-08T08:01:44.119Z,101166.28
2022-10-08T08:04:14.601Z,101165.09
2022-10-08T08:06:47.397Z,101174.00
2022-10-08T08:09:16.171Z,101171.69
2022-10-08T08:11:44.445Z,101172.91
2022-10-08T08:14:13.236Z,101169.28
2022-10-08T08:16:41.555Z,101173.91
2022-10-08T08:19:09.869Z,101169.66
2022-10-08T08:21:40.303Z,101171.81
2022-10-08T08:24:11.740Z,101176.22
2022-10-08T08:26:42.615Z,101177.38
2022-10-08T08:29:15.914Z,101181.59
2022-10-08T08:31:46.786Z,101188.94
2022-10-08T08:34:18.383Z,101179.28
2022-10-08T08:36:50.552Z,101178.44
2022-10-08T08:39:21.519Z,101186.50
2022-10-08T08:42:02.513Z,101183.41
2022-10-08T08:44:35.290Z,101172.91
2022-10-08T08:47:11.138Z,101185.16
2022-10-08T08:49:43.876Z,101193.03
2022-10-08T08:52:17.569Z,101198.03
2022-10-08T08:54:49.284Z,101197.47
2022-10-08T08:57:34.973Z,101194.81
2022-10-08T09:00:14.932Z,101198.69
2022-10-08T09:02:53.599Z,101198.25
2022-10-08T09:05:23.021Z,101199.72
2022-10-08T09:08:00.355Z,101197.28
2022-10-08T09:10:37.701Z,101195.81
2022-10-08T09:13:15.444Z,101203.09
2022-10-08T09:15:46.209Z,101203.84
2022-10-08T09:18:17.034Z,101200.59
2022-10-08T09:20:45.894Z,101207.13
2022-10-08T09:23:18.684Z,101206.66
2022-10-08T09:25:57.489Z,101207.97
2022-10-08T09:28:44.505Z,101217.66
2022-10-08T09:31:24.027Z,101220.97
2022-10-08T09:34:02.948Z,101224.13
2022-10-08T09:36:42.385Z,101218.00
2022-10-08T09:39:20.419Z,101221.78
2022-10-08T09:42:14.654Z,101225.06
2022-10-08T09:44:44.931Z,101230.56
2022-10-08T09:47:15.949Z,101231.56
2022-10-08T09:49:44.934Z,101223.34
2022-10-08T09:52:20.505Z,101228.63
2022-10-08T09:54:54.391Z,101230.50
2022-10-08T09:57:23.919Z,101233.34
2022-10-08T09:59:54.878Z,101229.47
2022-10-08T10:02:33.541Z,101233.94
2022-10-08T10:05:04.417Z,101243.41
2022-10-08T10:07:41.973Z,101235.84
2022-10-08T10:10:27.250Z,101241.00
2022-10-08T10:13:00.149Z,101233.56
2022-10-08T10:15:35.120Z,101240.59
2022-10-08T10:18:09.704Z,101240.59
2022-10-08T10:20:42.825Z,101240.00
2022-10-08T10:23:15.992Z,101242.13
2022-10-08T10:25:50.575Z,101238.91
2022-10-08T10:28:29.922Z,101242.06
2022-10-08T10:31:04.817Z,101243.59
2022-10-08T10:33:37.519Z,101238.94
2022-10-08T10:36:11.963Z,101244.56
2022-10-08T10:38:46.167Z,101255.88
2022-10-08T10:41:26.159Z,101252.09
2022-10-08T10:44:00.371Z,101254.91
2022-10-08T10:46:37.846Z,101260.34
2022-10-08T10:49:15.658Z,101264.94
2022-10-08T11:18:36.339Z,101256.75
2022-10-08T11:21:24.367Z,101263.53
2022-10-08T11:24:17.009Z,101265.38
2022-10-08T11:26:56.517Z,101270.69
2022-10-08T11:29:34.742Z,101258.00
2022-10-08T11:32:06.401Z,101269.50
2022-10-08T11:34:38.060Z,101265.34
2022-10-08T11:37:16.650Z,101273.59
2022-10-08T11:39:57.607Z,101272.00
2022-10-08T11:42:40.175Z,101273.03
2022-10-08T11:45:37.893Z,101271.53
2022-10-08T11:48:31.505Z,101285.59
2022-10-08T11:51:37.196Z,101276.69
2022-10-08T11:54:31.072Z,101277.94
2022-10-08T11:57:19.379Z,101276.38
2022-10-08T11:59:55.708Z,101276.50
2022-10-08T12:02:29.145Z,101269.50
2022-10-08T12:05:01.441Z,101278.38
2022-10-08T12:07:34.709Z,101287.31
2022-10-08T12:10:32.306Z,101278.38
2022-10-08T12:13:32.194Z,101270.75
2022-10-08T12:16:06.756Z,101262.94
2022-10-08T12:18:53.481Z,101270.94
2022-10-08T12:21:50.930Z,101273.13
2022-10-08T12:24:56.390Z,101283.88
2022-10-08T12:27:34.854Z,101272.47
2022-10-08T12:30:10.576Z,101274.31
2022-10-08T12:32:56.932Z,101271.50
2022-10-08T12:35:31.816Z,101268.09
2022-10-08T12:38:19.333Z,101265.38
2022-10-08T12:40:58.327Z,101260.63
2022-10-08T12:43:37.861Z,101267.34
2022-10-08T12:46:25.787Z,101262.63
2022-10-08T12:49:01.450Z,101271.03
2022-10-08T12:51:41.409Z,101264.69
2022-10-08T12:54:19.627Z,101276.69
2022-10-08T12:56:48.165Z,101275.75
2022-10-08T12:59:18.300Z,101261.44
2022-10-08T13:01:51.592Z,101265.81
2022-10-08T13:04:22.887Z,101266.97
2022-10-08T13:06:52.869Z,101262.66
2022-10-08T13:09:28.656Z,101260.38
2022-10-08T13:12:03.114Z,101259.88
2022-10-08T13:14:33.892Z,101255.44
2022-10-08T13:17:04.542Z,101260.50
2022-10-08T13:19:35.216Z,101258.03
2022-10-08T13:22:08.697Z,101262.19
2022-10-08T13:24:42.298Z,101252.81
2022-10-08T13:27:25.452Z,101259.59
2022-10-08T13:29:54.065Z,101257.13
2022-10-08T13:32:25.940Z,101260.00
2022-10-08T13:34:57.425Z,101256.34
2022-10-08T13:37:33.401Z,101261.97
2022-10-08T13:40:05.609Z,101265.16
2022-10-08T13:42:37.251Z,101260.25
2022-10-08T13:45:15.381Z,101263.22
2022-10-08T13:47:45.602Z,101257.00
2022-10-08T13:50:14.907Z,101261.72
2022-10-08T13:52:46.529Z,101255.91
2022-10-08T13:55:27.044Z,101264.09
2022-10-08T13:57:55.757Z,101265.25
2022-10-08T14:00:24.753Z,101263.56
2022-10-08T14:02:54.590Z,101262.56
2022-10-08T14:05:23.832Z,101262.31
2022-10-08T14:07:57.212Z,101264.44
2022-10-08T14:10:25.668Z,101267.03
2022-10-08T14:12:53.859Z,101260.38
2022-10-08T14:15:22.129Z,101255.78
2022-10-08T14:17:50.704Z,101258.47
2022-10-08T14:20:20.463Z,101259.59
2022-10-08T14:22:48.912Z,101261.97
2022-10-08T14:25:21.923Z,101256.25
2022-10-08T14:27:51.325Z,101258.94
2022-10-08T14:30:19.908Z,101249.88
2022-10-08T14:32:48.532Z,101259.63
2022-10-08T14:35:17.027Z,101255.22
2022-10-08T14:37:46.958Z,101254.31
2022-10-08T14:40:20.576Z,101260.44
2022-10-08T14:42:49.261Z,101257.13
2022-10-08T14:45:17.929Z,101259.94
2022-10-08T14:47:46.463Z,101264.72
2022-10-08T14:50:14.915Z,101261.31
2022-10-08T14:52:44.551Z,101253.28
2022-10-08T14:55:15.226Z,101261.28
2022-10-08T14:57:43.688Z,101259.16
2022-10-08T15:00:14.140Z,101261.06
2022-10-08T15:02:42.401Z,101255.22
2022-10-08T15:05:10.769Z,101257.81
2022-10-08T15:07:39.345Z,101264.44
2022-10-08T15:10:09.172Z,101255.50
2022-10-08T15:12:38.898Z,101264.56
2022-10-08T15:15:08.492Z,101249.50
2022-10-08T15:17:36.779Z,101258.56
2022-10-08T15:20:05.845Z,101260.38
2022-10-08T15:22:34.391Z,101260.25
2022-10-08T15:25:02.907Z,101258.34
2022-10-08T15:27:31.568Z,101258.25
2022-10-08T15:30:01.225Z,101260.88
2022-10-08T15:32:30.622Z,101263.41
2022-10-08T15:34:59.042Z,101261.53
2022-10-08T15:37:27.328Z,101252.53
2022-10-08T15:39:55.702Z,101254.94
2022-10-08T15:42:24.099Z,101261.81
2022-10-08T15:44:52.308Z,101259.75
2022-10-08T15:47:22.049Z,101255.97
2022-10-08T15:49:50.357Z,101262.66
2022-10-08T15:52:21.899Z,101270.44
2022-10-08T15:54:50.137Z,101263.22
2022-10-08T15:57:19.959Z,101271.84
2022-10-08T15:59:48.262Z,101274.22
2022-10-08T16:02:17.776Z,101265.91
2022-10-08T16:04:48.794Z,101271.69
2022-10-08T16:07:17.592Z,101274.94
2022-10-08T16:09:45.905Z,101280.00
2022-10-08T16:12:14.470Z,101289.53
2022-10-08T16:14:42.650Z,101279.66
2022-10-08T16:17:11.233Z,101290.91
2022-10-08T16:19:39.505Z,101299.50
2022-10-08T16:22:09.039Z,101293.91
2022-10-08T16:24:37.548Z,101289.19
2022-10-08T16:27:05.849Z,101301.31
2022-10-08T16:29:34.030Z,101297.41
2022-10-08T16:32:03.079Z,101305.91
2022-10-08T16:34:31.877Z,101310.94
2022-10-08T16:37:01.837Z,101315.94
2022-10-08T16:39:31.476Z,101322.63
2022-10-08T16:41:59.680Z,101324.88
2022-10-08T16:44:27.915Z,101318.22
2022-10-08T16:46:56.275Z,101335.44
2022-10-08T16:49:27.305Z,101336.78
2022-10-08T16:51:59.130Z,101335.41
2022-10-08T16:54:28.427Z,101342.88
2022-10-08T16:56:58.655Z,101345.06
2022-10-08T16:59:29.393Z,101346.31
2022-10-08T17:02:00.032Z,101352.91
2022-10-08T17:04:29.711Z,101353.25
2022-10-08T17:06:58.210Z,101358.09
2022-10-08T17:09:26.479Z,101368.09
2022-10-08T17:11:54.684Z,101370.19
2022-10-08T17:14:24.234Z,101372.28
2022-10-08T17:16:52.457Z,101369.97
2022-10-08T17:19:21.003Z,101377.38
2022-10-08T17:21:49.485Z,101380.28
2022-10-08T17:24:18.000Z,101377.94
2022-10-08T17:26:46.323Z,101389.75
2022-10-08T17:29:14.811Z,101395.38
2022-10-08T17:31:44.473Z,101399.22
2022-10-08T17:34:14.320Z,101403.00
2022-10-08T17:36:44.143Z,101407.59
2022-10-08T17:39:14.880Z,101413.09
2022-10-08T17:41:44.621Z,101416.03
2022-10-08T17:44:13.553Z,101423.31
2022-10-08T17:46:46.039Z,101427.06
2022-10-08T17:49:15.145Z,101429.91
2022-10-08T17:51:43.952Z,101424.81
2022-10-08T17:54:15.373Z,101429.34
2022-10-08T17:56:44.262Z,101438.38
2022-10-08T17:59:15.624Z,101438.53
2022-10-08T18:01:46.023Z,101442.28
2022-10-08T18:04:17.464Z,101444.28
2022-10-08T18:06:48.081Z,101455.13
2022-10-08T18:09:19.943Z,101451.81
2022-10-08T18:11:51.998Z,101455.56
2022-10-08T18:14:20.853Z,101456.66
2022-10-08T18:16:50.462Z,101462.16
2022-10-08T18:19:19.274Z,101464.97
2022-10-08T18:21:47.740Z,101471.34
2022-10-08T18:24:16.829Z,101475.88
2022-10-08T18:26:45.312Z,101469.91
2022-10-08T18:29:15.813Z,101470.94
2022-10-08T18:31:46.428Z,101478.13
2022-10-08T18:34:19.052Z,101487.13
2022-10-08T18:36:48.851Z,101492.59
2022-10-08T18:39:21.451Z,101485.75
2022-10-08T18:41:52.476Z,101496.56
2022-10-08T18:44:23.687Z,101497.66
2022-10-08T18:46:52.502Z,101501.31
2022-10-08T18:49:29.582Z,101510.19
2022-10-08T18:51:58.324Z,101516.47
2022-10-08T18:54:27.200Z,101528.00
2022-10-08T18:56:56.870Z,101528.13
2022-10-08T18:59:25.232Z,101528.22
2022-10-08T19:01:58.312Z,101533.56
2022-10-08T19:04:29.044Z,101534.50
2022-10-08T19:06:57.537Z,101538.13
2022-10-08T19:09:26.004Z,101538.19
2022-10-08T19:11:57.274Z,101542.59
2022-10-08T19:14:25.686Z,101541.75
2022-10-08T19:16:53.901Z,101541.75
2022-10-08T19:19:24.434Z,101547.94
2022-10-08T19:21:54.773Z,101547.09
2022-10-08T19:24:25.555Z,101549.75
2022-10-08T19:26:55.921Z,101551.53
2022-10-08T19:29:27.913Z,101560.31
2022-10-08T19:31:56.919Z,101566.50
2022-10-08T19:34:27.658Z,101555.09
2022-10-08T19:36:57.571Z,101559.56
2022-10-08T19:39:28.902Z,101570.22
2022-10-08T19:41:57.325Z,101568.50
2022-10-08T19:44:25.815Z,101574.69
2022-10-08T19:46:54.707Z,101580.91
2022-10-08T19:49:23.337Z,101575.66
2022-10-08T19:51:54.100Z,101587.13
2022-10-08T19:54:23.815Z,101589.75
2022-10-08T19:56:51.976Z,101593.28
2022-10-08T19:59:20.629Z,101590.66
2022-10-08T20:01:49.072Z,101595.91
2022-10-08T20:04:17.596Z,101601.19
2022-10-08T20:06:45.826Z,101597.69
2022-10-08T20:09:14.975Z,101599.47
2022-10-08T20:11:46.898Z,101603.88
2022-10-08T20:14:15.940Z,101603.00
2022-10-08T20:16:44.917Z,101606.53
2022-10-08T20:19:19.204Z,101613.59
2022-10-08T20:21:48.492Z,101612.75
2022-10-08T20:24:18.174Z,101608.44
2022-10-08T20:26:49.001Z,101611.13
2022-10-08T20:29:19.669Z,101620.00
2022-10-08T20:31:50.190Z,101613.03
2022-10-08T20:34:20.683Z,101619.25
2022-10-08T20:36:49.783Z,101616.66
2022-10-08T20:39:20.239Z,101623.75
2022-10-08T20:41:51.616Z,101626.47
2022-10-08T20:44:20.465Z,101627.53
2022-10-08T20:46:51.283Z,101634.75
2022-10-08T20:49:19.768Z,101632.31
2022-10-08T20:51:48.612Z,101629.78
2022-10-08T20:54:17.907Z,101627.22
2022-10-08T20:56:46.471Z,101631.66
2022-10-08T20:59:19.074Z,101633.47
2022-10-08T21:01:50.052Z,101633.56
2022-10-08T21:04:19.187Z,101634.50
2022-10-08T21:06:50.883Z,101642.47
2022-10-08T21:09:22.066Z,101640.72
2022-10-08T21:11:53.508Z,101646.03
2022-10-08T21:14:24.429Z,101641.72
2022-10-08T21:16:54.139Z,101658.38
2022-10-08T21:19:23.234Z,101654.00
2022-10-08T21:21:52.226Z,101645.31
2022-10-08T21:24:21.171Z,101651.41
2022-10-08T21:26:49.874Z,101651.47
2022-10-08T21:29:20.236Z,101660.22
2022-10-08T21:31:49.926Z,101657.66
2022-10-08T21:34:18.572Z,101645.47
2022-10-08T21:36:47.055Z,101649.00
2022-10-08T21:39:18.207Z,101654.28
2022-10-08T21:41:47.428Z,101657.78
2022-10-08T21:44:15.986Z,101656.91
2022-10-08T21:46:45.229Z,101654.31
2022-10-08T21:49:17.617Z,101650.03
2022-10-08T21:51:46.767Z,101657.06
2022-10-08T21:54:16.735Z,101652.72
2022-10-08T21:56:46.174Z,101655.38
2022-10-08T21:59:16.879Z,101654.50
2022-10-08T22:01:47.114Z,101663.28
2022-10-08T22:04:19.073Z,101663.31
2022-10-08T22:06:50.436Z,101669.47
2022-10-08T22:09:21.744Z,101666.00
2022-10-08T22:11:51.131Z,101666.03
2022-10-08T22:14:19.931Z,101662.56
2022-10-08T22:16:48.608Z,101667.88
2022-10-08T22:19:18.546Z,101674.03
2022-10-08T22:21:46.864Z,101671.44
2022-10-08T22:24:15.356Z,101667.97
2022-10-08T22:26:46.968Z,101671.47
2022-10-08T22:29:15.396Z,101674.16
2022-10-08T22:31:43.746Z,101673.28
2022-10-08T22:34:12.531Z,101669.78
2022-10-08T22:36:44.144Z,101668.06
2022-10-08T22:39:13.404Z,101668.06
2022-10-08T22:41:41.903Z,101670.69
2022-10-08T22:44:10.231Z,101659.34
2022-10-08T22:46:40.532Z,101653.22
2022-10-08T22:49:11.672Z,101655.88
2022-10-08T22:51:43.905Z,101661.13
2022-10-08T22:54:12.388Z,101659.41
2022-10-08T22:56:40.620Z,101654.19
2022-10-08T22:59:09.216Z,101660.31
2022-10-08T23:01:37.733Z,101655.94
2022-10-08T23:04:06.060Z,101657.72
2022-10-08T23:06:35.850Z,101655.13
2022-10-08T23:09:09.161Z,101653.41
2022-10-08T23:11:37.988Z,101649.06
2022-10-08T23:14:06.932Z,101655.19
2022-10-08T23:16:36.219Z,101657.81
2022-10-08T23:19:08.097Z,101654.31
2022-10-08T23:21:37.472Z,101649.09
2022-10-08T23:24:07.688Z,101647.38
2022-10-08T23:26:36.908Z,101647.41
2022-10-08T23:29:05.776Z,101650.91
2022-10-08T23:31:36.877Z,101642.16
2022-10-08T23:34:06.620Z,101645.69
2022-10-08T23:36:38.971Z,101643.94
2022-10-08T23:39:11.476Z,101643.94
2022-10-08T23:41:40.017Z,101643.97
2022-10-08T23:44:08.880Z,101647.47
2022-10-08T23:46:37.148Z,101647.50
2022-10-08T23:49:05.421Z,101640.53
2022-10-08T23:51:33.688Z,101640.53
2022-10-08T23:54:02.472Z,101630.97
2022-10-08T23:56:32.376Z,101636.22
2022-10-08T23:59:00.684Z,101637.09
